CMM weather

Carmelita Airport
Carmelita, Peten, Guatemala

Public forecast

Using degrees Celsius for public forecast. Weather courtesy of forecast.io.

METAR (pilot weather report)

Closest report is Mundo Maya International Airport, 34.6 nm (64.0 km) SSE. Retrieved 2019/08/25 11:00 UTC (18 minutes ago):

MGMM 251100Z 00000KT CAVOK 22/21 Q1013 A2991

TAF (pilot weather forecast)

Forecast is more than 12 hours old.

Closest forecast is Mundo Maya International Airport, 34.6 nm (64.0 km) SSE. Retrieved 2019/08/23 00:00 UTC (2 days ago):

TAF MGMM 232300Z 2400/2424 00000KT CAVOK TX36/2420Z TN23/2412Z BECMG 2415/2417 09008KT FEW018 BECMG 2420/2422 SCT030